Search for airport 
image banner adimage banner ad
image banner ad

LECART - Cartama (forestal)

Located in , Spain

ICAO - , IATA -

Data provided by Airmate  

General information

Coordinates: N36°43'24" W4°41'54"
Elevation is 656 feet MSL.
 
Rated:
View ratings: [VIEW]


View others Airports in Málaga

Operational data

Open for public use
Current time UTC:
Current local time:
Weather at : LEMG - Malaga/Costa Del Sol ( 19 km )
METAR: LEMG 081530Z 13006KT 070V190 CAVOK 31/11 Q1017 NOSIG
TAF: TAF LEMG 081100Z 0812/0912 13008KT CAVOK TX33/0912Z TN24/0905Z BECMG 0819/0821 VRB03KT BECMG 0901/0903 29006KT BECMG 0908/0910 13008KT
View NOTAMs / SUP AIP / TFR affecting this airport [VIEW]
Communications frequencies: [VIEW]

Runways:

RWY identifierQFULength (ft)Width (ft)SurfaceLDA (ft)
0822970ASPH
2622970ASPH

Airport contact information

Address: Spain

Satellite view of LECART